createdAt,value
2023-05-20T00:00:49.585Z,10.30
2023-05-20T00:03:17.569Z,10.20
2023-05-20T00:05:44.965Z,10.20
2023-05-20T00:08:12.336Z,10.20
2023-05-20T00:10:39.743Z,10.10
2023-05-20T00:13:07.202Z,10.10
2023-05-20T00:15:36.258Z,10.10
2023-05-20T00:18:04.393Z,10.10
2023-05-20T00:20:32.661Z,10.10
2023-05-20T00:22:59.697Z,10.10
2023-05-20T00:25:26.857Z,10.00
2023-05-20T00:27:53.891Z,10.10
2023-05-20T00:30:21.047Z,10.10
2023-05-20T00:32:48.145Z,10.10
2023-05-20T00:35:15.160Z,10.00
2023-05-20T00:37:43.185Z,10.00
2023-05-20T00:40:11.709Z,9.90
2023-05-20T00:42:39.367Z,9.90
2023-05-20T00:45:07.038Z,9.90
2023-05-20T00:47:36.697Z,9.90
2023-05-20T00:50:04.929Z,9.90
2023-05-20T00:52:33.119Z,9.90
2023-05-20T00:55:01.037Z,9.80
2023-05-20T00:57:28.147Z,9.80
2023-05-20T00:59:55.604Z,9.80
2023-05-20T01:02:24.192Z,9.80
2023-05-20T01:04:51.250Z,9.90
2023-05-20T01:07:19.307Z,9.90
2023-05-20T01:09:46.382Z,9.80
2023-05-20T01:12:37.282Z,9.80
2023-05-20T01:15:09.570Z,9.80
2023-05-20T01:17:45.072Z,9.80
2023-05-20T01:20:14.572Z,9.80
2023-05-20T01:22:55.986Z,9.80
2023-05-20T01:25:24.890Z,9.80
2023-05-20T01:27:52.931Z,9.80
2023-05-20T01:30:21.327Z,9.80
2023-05-20T01:33:01.841Z,9.90
2023-05-20T01:35:29.897Z,9.80
2023-05-20T01:37:58.939Z,9.90
2023-05-20T01:40:27.847Z,9.90
2023-05-20T01:42:56.110Z,9.90
2023-05-20T01:45:25.391Z,10.00
2023-05-20T01:47:52.963Z,10.00
2023-05-20T01:50:20.206Z,10.00
2023-05-20T01:52:47.161Z,10.00
2023-05-20T01:55:14.208Z,10.00
2023-05-20T01:57:41.249Z,10.00
2023-05-20T02:00:09.733Z,10.00
2023-05-20T02:02:36.816Z,10.00
2023-05-20T02:05:04.181Z,10.10
2023-05-20T02:07:31.114Z,10.10
2023-05-20T02:09:58.169Z,10.10
2023-05-20T02:12:25.209Z,10.10
2023-05-20T02:14:52.268Z,10.10
2023-05-20T02:17:19.833Z,10.10
2023-05-20T02:19:47.412Z,10.10
2023-05-20T02:22:14.895Z,10.10
2023-05-20T02:24:43.443Z,10.10
2023-05-20T02:27:10.861Z,10.10
2023-05-20T02:29:37.842Z,10.20
2023-05-20T02:32:05.268Z,10.20
2023-05-20T02:34:33.074Z,10.20
2023-05-20T02:37:00.187Z,10.20
2023-05-20T02:39:28.526Z,10.10
2023-05-20T02:41:56.408Z,10.10
2023-05-20T02:44:23.569Z,10.10
2023-05-20T02:46:50.590Z,10.10
2023-05-20T02:49:17.587Z,10.00
2023-05-20T02:51:44.653Z,10.00
2023-05-20T02:54:12.078Z,10.00
2023-05-20T02:56:39.343Z,10.00
2023-05-20T02:59:07.221Z,9.90
2023-05-20T03:01:35.547Z,9.90
2023-05-20T03:04:05.708Z,9.80
2023-05-20T03:06:32.869Z,9.80
2023-05-20T03:08:59.841Z,9.70
2023-05-20T03:11:26.905Z,9.70
2023-05-20T03:13:54.045Z,9.70
2023-05-20T03:16:22.366Z,9.60
2023-05-20T03:18:49.770Z,9.60
2023-05-20T03:21:16.855Z,9.60
2023-05-20T03:23:43.752Z,9.60
2023-05-20T03:26:10.801Z,9.60
2023-05-20T03:28:37.764Z,9.60
2023-05-20T03:31:04.829Z,9.50
2023-05-20T03:33:33.724Z,9.50
2023-05-20T03:36:00.834Z,9.50
2023-05-20T03:38:27.987Z,9.60
2023-05-20T03:40:54.970Z,9.60
2023-05-20T03:43:21.861Z,9.60
2023-05-20T03:45:48.836Z,9.50
2023-05-20T03:48:16.071Z,9.50
2023-05-20T03:50:42.988Z,9.50
2023-05-20T03:53:10.006Z,9.50
2023-05-20T03:55:37.043Z,9.50
2023-05-20T03:58:04.156Z,9.50
2023-05-20T04:00:31.875Z,9.40
2023-05-20T04:02:59.301Z,9.40
2023-05-20T04:05:26.963Z,9.40
2023-05-20T04:07:53.903Z,9.40
2023-05-20T04:10:21.545Z,9.40
2023-05-20T04:12:48.775Z,9.50
2023-05-20T04:15:16.075Z,9.40
2023-05-20T04:17:43.726Z,9.40
2023-05-20T04:20:11.514Z,9.50
2023-05-20T04:22:39.775Z,9.50
2023-05-20T04:25:07.791Z,9.50
2023-05-20T04:27:34.862Z,9.40
2023-05-20T04:30:02.666Z,9.50
2023-05-20T04:32:30.337Z,9.50
2023-05-20T04:34:57.406Z,9.50
2023-05-20T04:37:25.274Z,9.60
2023-05-20T04:39:52.595Z,9.60
2023-05-20T04:42:21.532Z,9.70
2023-05-20T04:44:49.056Z,9.70
2023-05-20T04:47:16.613Z,9.80
2023-05-20T04:49:43.766Z,9.80
2023-05-20T04:52:10.812Z,9.90
2023-05-20T04:54:37.794Z,10.00
2023-05-20T04:57:05.073Z,10.00
2023-05-20T04:59:32.040Z,10.10
2023-05-20T05:01:59.094Z,10.20
2023-05-20T05:04:26.175Z,10.20
2023-05-20T05:06:53.154Z,10.30
2023-05-20T05:09:20.075Z,10.40
2023-05-20T05:11:47.041Z,10.40
2023-05-20T05:14:14.018Z,10.50
2023-05-20T05:16:40.961Z,10.60
2023-05-20T05:19:08.825Z,10.70
2023-05-20T05:21:36.232Z,10.80
2023-05-20T05:24:03.161Z,10.90
2023-05-20T05:26:30.134Z,11.10
2023-05-20T05:28:57.260Z,11.20
2023-05-20T05:31:24.299Z,11.30
2023-05-20T05:33:51.256Z,11.40
2023-05-20T05:36:18.216Z,11.50
2023-05-20T05:38:45.272Z,11.60
2023-05-20T05:41:12.186Z,11.70
2023-05-20T05:43:39.249Z,11.80
2023-05-20T05:46:06.661Z,11.90
2023-05-20T05:48:33.687Z,12.00
2023-05-20T05:51:00.747Z,12.10
2023-05-20T05:53:27.725Z,12.20
2023-05-20T05:55:54.752Z,12.30
2023-05-20T05:58:21.706Z,12.40
2023-05-20T06:00:52.982Z,12.50
2023-05-20T06:03:20.137Z,12.60
2023-05-20T06:05:47.593Z,12.70
2023-05-20T06:08:14.703Z,12.80
2023-05-20T06:10:41.825Z,12.80
2023-05-20T06:13:08.778Z,12.90
2023-05-20T06:15:36.640Z,13.00
2023-05-20T06:18:03.894Z,13.00
2023-05-20T06:20:30.852Z,13.10
2023-05-20T06:22:57.808Z,13.20
2023-05-20T06:25:25.557Z,13.40
2023-05-20T06:27:52.528Z,13.70
2023-05-20T06:30:19.493Z,13.80
2023-05-20T06:32:46.776Z,14.00
2023-05-20T06:35:13.753Z,14.10
2023-05-20T06:37:40.859Z,14.10
2023-05-20T06:40:08.868Z,14.20
2023-05-20T06:42:35.826Z,14.30
2023-05-20T06:45:02.890Z,14.30
2023-05-20T06:47:29.938Z,14.40
2023-05-20T06:49:56.870Z,14.50
2023-05-20T06:52:23.782Z,14.60
2023-05-20T06:54:50.734Z,14.70
2023-05-20T06:57:17.719Z,14.70
2023-05-20T06:59:44.812Z,14.80
2023-05-20T07:02:11.935Z,14.90
2023-05-20T07:04:39.026Z,15.00
2023-05-20T07:07:06.115Z,15.10
2023-05-20T07:09:33.124Z,15.30
2023-05-20T07:12:01.979Z,15.40
2023-05-20T07:14:29.011Z,15.50
2023-05-20T07:16:56.072Z,15.50
2023-05-20T07:19:23.051Z,15.60
2023-05-20T07:21:50.104Z,15.70
2023-05-20T07:24:17.433Z,16.00
2023-05-20T07:26:44.606Z,16.30
2023-05-20T07:29:11.601Z,16.60
2023-05-20T07:31:38.689Z,16.80
2023-05-20T07:34:06.058Z,17.30
2023-05-20T07:36:33.009Z,17.70
2023-05-20T07:39:03.588Z,17.80
2023-05-20T07:41:32.142Z,17.80
2023-05-20T07:43:59.105Z,17.70
2023-05-20T07:46:26.215Z,17.70
2023-05-20T07:48:53.602Z,17.90
2023-05-20T07:51:20.562Z,17.90
2023-05-20T07:53:47.618Z,17.80
2023-05-20T07:56:14.573Z,17.70
2023-05-20T07:58:41.820Z,17.70
2023-05-20T08:01:09.769Z,17.70
2023-05-20T08:03:37.069Z,17.60
2023-05-20T08:06:04.319Z,17.70
2023-05-20T08:08:31.267Z,17.70
2023-05-20T08:10:58.222Z,17.60
2023-05-20T08:13:25.614Z,17.70
2023-05-20T08:15:54.889Z,17.80
2023-05-20T08:18:22.844Z,17.90
2023-05-20T08:20:50.091Z,18.10
2023-05-20T08:23:17.147Z,18.30
2023-05-20T08:25:46.810Z,18.40
2023-05-20T08:28:16.301Z,18.50
2023-05-20T08:30:43.383Z,18.50
2023-05-20T08:33:10.925Z,18.40
2023-05-20T08:35:39.771Z,18.70
2023-05-20T08:38:07.149Z,19.20
2023-05-20T08:40:39.954Z,19.60
2023-05-20T08:43:07.233Z,19.90
2023-05-20T08:45:38.198Z,20.20
2023-05-20T08:48:05.872Z,20.40
2023-05-20T08:50:33.645Z,20.70
2023-05-20T08:53:01.256Z,20.80
2023-05-20T08:55:46.902Z,20.90
2023-05-20T08:58:15.766Z,20.80
2023-05-20T09:00:42.714Z,20.80
2023-05-20T09:03:10.134Z,21.00
2023-05-20T09:05:37.444Z,21.10
2023-05-20T09:08:10.074Z,21.20
2023-05-20T09:10:39.008Z,21.20
2023-05-20T09:13:07.722Z,21.20
2023-05-20T09:15:36.674Z,21.20
2023-05-20T09:18:07.268Z,21.20
2023-05-20T09:20:37.262Z,21.10
2023-05-20T09:23:09.893Z,21.00
2023-05-20T09:25:38.001Z,20.90
2023-05-20T09:28:07.679Z,20.90
2023-05-20T09:30:35.121Z,21.00
2023-05-20T09:33:05.520Z,21.00
2023-05-20T09:35:39.177Z,21.20
2023-05-20T09:38:10.056Z,21.40
2023-05-20T09:40:40.554Z,21.40
2023-05-20T09:43:08.400Z,21.60
2023-05-20T09:45:35.870Z,21.70
2023-05-20T09:48:05.683Z,21.80
2023-05-20T09:50:33.292Z,21.80
2023-05-20T09:53:04.763Z,21.80
2023-05-20T09:55:32.333Z,21.80
2023-05-20T09:58:03.327Z,21.90
2023-05-20T10:00:31.544Z,22.10
2023-05-20T10:02:59.529Z,22.10
2023-05-20T10:05:37.391Z,21.90
2023-05-20T10:08:57.276Z,21.80
2023-05-20T10:12:02.423Z,21.80
2023-05-20T10:14:42.167Z,22.00
2023-05-20T10:17:27.470Z,22.30
2023-05-20T10:20:01.673Z,22.40
2023-05-20T10:22:31.641Z,22.30
2023-05-20T10:25:01.378Z,22.20
2023-05-20T10:27:28.400Z,21.90
2023-05-20T10:29:58.429Z,21.80
2023-05-20T10:32:31.856Z,21.60
2023-05-20T10:35:05.444Z,21.40
2023-05-20T10:37:42.007Z,21.70
2023-05-20T10:40:14.802Z,21.90
2023-05-20T10:42:42.827Z,21.90
2023-05-20T10:45:10.883Z,22.00
2023-05-20T10:47:57.065Z,22.20
2023-05-20T10:50:40.984Z,22.40
2023-05-20T10:53:21.682Z,22.70
2023-05-20T10:55:56.716Z,23.00
2023-05-20T10:58:25.066Z,23.30
2023-05-20T11:00:55.455Z,23.70
2023-05-20T11:03:23.478Z,24.00
2023-05-20T11:05:51.233Z,24.30
2023-05-20T11:08:28.516Z,24.40
2023-05-20T11:10:57.998Z,24.40
2023-05-20T11:13:27.672Z,24.30
2023-05-20T11:15:55.535Z,24.20
2023-05-20T11:18:22.586Z,24.20
2023-05-20T11:20:49.653Z,24.10
2023-05-20T11:23:16.780Z,24.20
2023-05-20T11:25:43.756Z,24.40
2023-05-20T11:28:14.589Z,24.50
2023-05-20T11:30:43.685Z,24.40
2023-05-20T11:33:14.286Z,24.10
2023-05-20T11:35:49.610Z,24.00
2023-05-20T11:38:17.279Z,23.60
2023-05-20T11:40:52.110Z,23.60
2023-05-20T11:43:20.360Z,24.00
2023-05-20T11:45:59.999Z,24.40
2023-05-20T11:48:27.154Z,24.50
2023-05-20T11:50:56.233Z,24.50
2023-05-20T11:53:24.463Z,24.60
2023-05-20T11:55:55.669Z,24.80
2023-05-20T11:58:32.501Z,24.90
2023-05-20T12:01:13.303Z,24.90
2023-05-20T12:03:46.951Z,25.00
2023-05-20T12:06:14.173Z,25.30
2023-05-20T12:08:41.136Z,25.40
2023-05-20T12:11:08.087Z,25.40
2023-05-20T12:13:35.585Z,25.60
2023-05-20T12:16:04.237Z,25.80
2023-05-20T12:18:31.868Z,25.80
2023-05-20T12:21:00.108Z,25.80
2023-05-20T12:23:27.447Z,26.00
2023-05-20T12:25:54.373Z,25.90
2023-05-20T12:28:21.709Z,25.60
2023-05-20T12:30:48.638Z,25.40
2023-05-20T12:33:15.691Z,25.10
2023-05-20T12:35:43.836Z,24.90
2023-05-20T12:38:11.213Z,24.80
2023-05-20T12:40:38.564Z,24.80
2023-05-20T12:43:06.937Z,24.80
2023-05-20T12:45:34.152Z,24.80
2023-05-20T12:48:01.353Z,24.70
2023-05-20T12:50:28.746Z,24.50
2023-05-20T12:52:55.790Z,24.50
2023-05-20T12:55:23.076Z,24.60
2023-05-20T12:57:50.445Z,24.80
2023-05-20T13:00:17.966Z,25.00
2023-05-20T13:02:45.053Z,24.90
2023-05-20T13:05:12.316Z,25.00
2023-05-20T13:07:39.774Z,25.20
2023-05-20T13:10:08.374Z,25.30
2023-05-20T13:12:36.727Z,25.20
2023-05-20T13:15:05.088Z,25.00
2023-05-20T13:17:32.275Z,24.70
2023-05-20T13:19:59.343Z,24.50
2023-05-20T13:22:26.302Z,24.70
2023-05-20T13:24:53.256Z,24.90
2023-05-20T13:27:20.218Z,25.00
2023-05-20T13:29:47.460Z,24.90
2023-05-20T13:32:14.417Z,24.50
2023-05-20T13:34:41.570Z,24.40
2023-05-20T13:37:08.605Z,24.80
2023-05-20T13:39:36.374Z,25.40
2023-05-20T13:42:04.279Z,25.80
2023-05-20T13:44:32.726Z,26.00
2023-05-20T13:47:00.169Z,26.30
2023-05-20T13:49:27.640Z,26.00
2023-05-20T13:51:54.594Z,25.20
2023-05-20T13:54:22.125Z,24.70
2023-05-20T13:56:49.320Z,24.70
2023-05-20T13:59:16.585Z,24.40
2023-05-20T14:01:45.438Z,24.50
2023-05-20T14:04:12.972Z,24.20
2023-05-20T14:06:40.599Z,24.00
2023-05-20T14:09:09.282Z,24.00
2023-05-20T14:11:37.050Z,23.90
2023-05-20T14:14:04.224Z,24.20
2023-05-20T14:16:32.535Z,24.30
2023-05-20T14:18:59.691Z,24.20
2023-05-20T14:21:26.717Z,24.00
2023-05-20T14:23:53.859Z,23.90
2023-05-20T14:26:21.724Z,23.70
2023-05-20T14:28:49.097Z,23.60
2023-05-20T14:31:16.492Z,23.40
2023-05-20T14:33:43.597Z,23.20
2023-05-20T14:36:11.395Z,22.90
2023-05-20T14:38:38.857Z,22.60
2023-05-20T14:41:05.929Z,22.40
2023-05-20T14:43:32.913Z,22.40
2023-05-20T14:46:00.111Z,22.40
2023-05-20T14:48:27.151Z,22.50
2023-05-20T14:50:54.145Z,22.70
2023-05-20T14:53:21.248Z,22.80
2023-05-20T14:55:48.444Z,22.70
2023-05-20T14:58:15.491Z,22.60
2023-05-20T15:00:42.500Z,22.40
2023-05-20T15:03:09.830Z,22.30
2023-05-20T15:05:37.016Z,22.30
2023-05-20T15:08:04.279Z,22.30
2023-05-20T15:10:31.575Z,22.30
2023-05-20T15:12:58.552Z,22.30
2023-05-20T15:15:25.583Z,22.40
2023-05-20T15:17:52.637Z,22.60
2023-05-20T15:20:19.732Z,23.00
2023-05-20T15:22:48.125Z,23.30
2023-05-20T15:25:15.337Z,23.70
2023-05-20T15:27:42.594Z,23.90
2023-05-20T15:30:10.595Z,23.80
2023-05-20T15:32:37.937Z,23.60
2023-05-20T15:35:06.078Z,23.50
2023-05-20T15:37:33.057Z,23.30
2023-05-20T15:39:59.979Z,23.00
2023-05-20T15:42:27.007Z,22.90
2023-05-20T15:44:54.014Z,22.70
2023-05-20T15:47:21.434Z,22.60
2023-05-20T15:49:48.523Z,22.50
2023-05-20T15:52:15.592Z,22.40
2023-05-20T15:54:42.657Z,22.30
2023-05-20T15:57:10.149Z,22.30
2023-05-20T15:59:37.100Z,22.30
2023-05-20T16:02:04.263Z,22.40
2023-05-20T16:04:32.541Z,22.40
2023-05-20T16:06:59.668Z,22.40
2023-05-20T16:09:26.673Z,22.30
2023-05-20T16:11:53.635Z,22.10
2023-05-20T16:14:20.549Z,21.90
2023-05-20T16:16:47.649Z,21.90
2023-05-20T16:19:14.801Z,21.80
2023-05-20T16:21:41.750Z,21.70
2023-05-20T16:24:08.736Z,21.70
2023-05-20T16:26:35.716Z,21.70
2023-05-20T16:29:02.703Z,21.70
2023-05-20T16:31:29.781Z,21.80
2023-05-20T16:33:57.422Z,21.80
2023-05-20T16:36:24.385Z,21.80
2023-05-20T16:38:51.413Z,21.80
2023-05-20T16:41:18.516Z,21.90
2023-05-20T16:43:45.491Z,22.00
2023-05-20T16:46:14.874Z,22.20
2023-05-20T16:48:42.999Z,22.40
2023-05-20T16:51:09.920Z,22.30
2023-05-20T16:53:37.371Z,21.90
2023-05-20T16:56:06.752Z,21.90
2023-05-20T16:58:33.725Z,21.90
2023-05-20T17:01:01.981Z,22.00
2023-05-20T17:03:28.958Z,22.20
2023-05-20T17:05:55.947Z,22.30
2023-05-20T17:08:22.999Z,22.40
2023-05-20T17:10:52.426Z,22.30
2023-05-20T17:13:21.041Z,22.20
2023-05-20T17:15:48.277Z,22.10
2023-05-20T17:18:15.342Z,22.10
2023-05-20T17:20:42.362Z,22.10
2023-05-20T17:23:09.413Z,22.20
2023-05-20T17:25:36.458Z,22.20
2023-05-20T17:28:03.569Z,22.10
2023-05-20T17:30:30.554Z,22.00
2023-05-20T17:32:57.901Z,21.90
2023-05-20T17:35:28.221Z,21.70
2023-05-20T17:37:55.359Z,21.60
2023-05-20T17:40:22.420Z,21.50
2023-05-20T17:42:49.399Z,21.40
2023-05-20T17:45:16.685Z,21.30
2023-05-20T17:47:43.683Z,21.20
2023-05-20T17:50:11.182Z,21.10
2023-05-20T17:52:38.312Z,20.90
2023-05-20T17:55:06.693Z,20.80
2023-05-20T17:57:34.017Z,20.80
2023-05-20T18:00:00.956Z,20.60
2023-05-20T18:02:28.089Z,20.50
2023-05-20T18:04:55.195Z,20.50
2023-05-20T18:07:22.388Z,20.40
2023-05-20T18:09:49.366Z,20.30
2023-05-20T18:12:16.306Z,20.30
2023-05-20T18:14:43.280Z,20.30
2023-05-20T18:17:10.532Z,20.30
2023-05-20T18:19:37.515Z,20.20
2023-05-20T18:22:07.199Z,20.20
2023-05-20T18:24:34.577Z,20.10
2023-05-20T18:27:01.573Z,20.10
2023-05-20T18:29:28.550Z,20.00
2023-05-20T18:31:55.755Z,20.00
2023-05-20T18:34:22.804Z,20.00
2023-05-20T18:36:50.178Z,19.90
2023-05-20T18:39:20.496Z,19.90
2023-05-20T18:41:48.597Z,19.90
2023-05-20T18:44:17.461Z,19.90
2023-05-20T18:46:44.758Z,19.80
2023-05-20T18:49:11.776Z,19.80
2023-05-20T18:51:40.183Z,19.80
2023-05-20T18:54:07.283Z,19.80
2023-05-20T18:56:35.059Z,19.70
2023-05-20T18:59:02.117Z,19.60
2023-05-20T19:01:29.152Z,19.50
2023-05-20T19:03:56.218Z,19.50
2023-05-20T19:06:23.516Z,19.40
2023-05-20T19:08:50.817Z,19.30
2023-05-20T19:11:17.909Z,19.20
2023-05-20T19:13:44.886Z,19.10
2023-05-20T19:16:11.926Z,19.10
2023-05-20T19:18:39.085Z,19.00
2023-05-20T19:21:06.291Z,18.90
2023-05-20T19:23:33.198Z,18.90
2023-05-20T19:26:00.207Z,18.80
2023-05-20T19:28:27.162Z,18.80
2023-05-20T19:30:54.149Z,18.80
2023-05-20T19:33:21.728Z,18.80
2023-05-20T19:35:51.874Z,18.70
2023-05-20T19:38:18.853Z,18.70
2023-05-20T19:40:47.014Z,18.70
2023-05-20T19:43:14.108Z,18.60
2023-05-20T19:45:41.238Z,18.60
2023-05-20T19:48:08.766Z,18.50
2023-05-20T19:50:36.447Z,18.40
2023-05-20T19:53:06.374Z,18.30
2023-05-20T19:55:38.604Z,18.30
2023-05-20T19:58:06.049Z,18.20
2023-05-20T20:00:33.004Z,18.10
2023-05-20T20:03:00.086Z,18.00
2023-05-20T20:05:27.198Z,18.00
2023-05-20T20:07:54.322Z,17.90
2023-05-20T20:10:24.580Z,17.80
2023-05-20T20:12:51.570Z,17.70
2023-05-20T20:15:23.698Z,17.60
2023-05-20T20:17:52.471Z,17.60
2023-05-20T20:20:20.004Z,17.50
2023-05-20T20:22:47.038Z,17.50
2023-05-20T20:25:14.032Z,17.40
2023-05-20T20:27:43.934Z,17.30
2023-05-20T20:30:13.387Z,17.30
2023-05-20T20:32:41.794Z,17.20
2023-05-20T20:35:09.559Z,17.20
2023-05-20T20:37:40.192Z,17.10
2023-05-20T20:40:13.256Z,17.00
2023-05-20T20:42:42.376Z,16.90
2023-05-20T20:45:12.304Z,16.80
2023-05-20T20:47:41.090Z,16.70
2023-05-20T20:50:12.694Z,16.60
2023-05-20T20:52:40.230Z,16.50
2023-05-20T20:55:07.989Z,16.50
2023-05-20T20:57:35.321Z,16.40
2023-05-20T21:00:08.880Z,16.40
2023-05-20T21:02:36.481Z,16.40
2023-05-20T21:05:03.467Z,16.40
2023-05-20T21:07:30.562Z,16.40
2023-05-20T21:09:57.677Z,16.30
2023-05-20T21:12:24.614Z,16.30
2023-05-20T21:14:51.645Z,16.30
2023-05-20T21:17:18.609Z,16.30
2023-05-20T21:19:45.535Z,16.20
2023-05-20T21:22:12.507Z,16.10
2023-05-20T21:24:39.504Z,16.00
2023-05-20T21:27:06.437Z,16.00
2023-05-20T21:29:35.272Z,15.90
2023-05-20T21:32:02.271Z,15.90
2023-05-20T21:34:29.203Z,15.80
2023-05-20T21:36:56.446Z,15.80
2023-05-20T21:39:23.477Z,15.90
2023-05-20T21:41:50.388Z,15.90
2023-05-20T21:44:17.366Z,15.90
2023-05-20T21:46:44.358Z,15.80
2023-05-20T21:49:11.356Z,15.80
2023-05-20T21:51:38.300Z,15.70
2023-05-20T21:54:05.295Z,15.50
2023-05-20T21:56:32.225Z,15.40
2023-05-20T21:58:59.173Z,15.30
2023-05-20T22:01:26.131Z,15.20
2023-05-20T22:03:53.345Z,15.10
2023-05-20T22:06:21.562Z,15.10
2023-05-20T22:08:49.045Z,15.00
2023-05-20T22:11:18.416Z,15.00
2023-05-20T22:13:53.634Z,14.90
2023-05-20T22:16:21.505Z,14.80
2023-05-20T22:18:53.868Z,14.70
2023-05-20T22:21:21.525Z,14.60
2023-05-20T22:23:51.379Z,14.50
2023-05-20T22:26:19.725Z,14.30
2023-05-20T22:28:46.878Z,14.20
2023-05-20T22:31:14.045Z,14.10
2023-05-20T22:33:44.075Z,14.00
2023-05-20T22:36:11.038Z,14.00
2023-05-20T22:38:38.053Z,14.00
2023-05-20T22:41:05.696Z,13.90
2023-05-20T22:43:36.718Z,13.90
2023-05-20T22:46:03.991Z,13.80
2023-05-20T22:48:34.317Z,13.80
2023-05-20T22:51:03.795Z,13.80
2023-05-20T22:53:30.819Z,13.80
2023-05-20T22:56:05.878Z,13.80
2023-05-20T22:58:39.465Z,13.70
2023-05-20T23:01:10.533Z,13.70
2023-05-20T23:03:38.229Z,13.70
2023-05-20T23:06:07.260Z,13.60
2023-05-20T23:08:44.499Z,13.60
2023-05-20T23:11:11.714Z,13.60
2023-05-20T23:13:38.639Z,13.60
2023-05-20T23:16:06.529Z,13.50
2023-05-20T23:18:40.011Z,13.50
2023-05-20T23:21:07.372Z,13.50
2023-05-20T23:23:37.402Z,13.50
2023-05-20T23:26:08.339Z,13.50
2023-05-20T23:28:42.108Z,13.40
2023-05-20T23:31:09.285Z,13.40
2023-05-20T23:33:36.366Z,13.30
2023-05-20T23:36:07.338Z,13.20
2023-05-20T23:38:37.969Z,13.20
2023-05-20T23:41:05.084Z,13.20
2023-05-20T23:43:31.992Z,13.20
2023-05-20T23:45:58.933Z,13.10
2023-05-20T23:48:29.649Z,13.00
2023-05-20T23:51:10.183Z,12.90
2023-05-20T23:53:40.873Z,12.90
2023-05-20T23:56:10.779Z,12.80
2023-05-20T23:58:53.371Z,12.70
